createdAt,value
2022-10-29T00:00:01.567Z,77.60
2022-10-29T00:02:35.850Z,89.28
2022-10-29T00:05:03.646Z,82.90
2022-10-29T00:07:30.992Z,82.93
2022-10-29T00:09:58.390Z,82.93
2022-10-29T00:12:26.016Z,91.82
2022-10-29T00:14:53.369Z,100.03
2022-10-29T00:17:20.728Z,87.93
2022-10-29T00:19:49.077Z,81.68
2022-10-29T00:22:16.413Z,93.25
2022-10-29T00:24:43.752Z,89.75
2022-10-29T00:27:11.348Z,84.65
2022-10-29T00:29:38.773Z,78.37
2022-10-29T00:32:06.213Z,80.72
2022-10-29T00:34:34.130Z,86.97
2022-10-29T00:37:01.519Z,71.87
2022-10-29T00:39:29.602Z,70.93
2022-10-29T00:41:57.560Z,73.05
2022-10-29T00:44:27.862Z,74.47
2022-10-29T00:47:17.941Z,87.37
2022-10-29T00:49:47.870Z,75.62
2022-10-29T00:52:15.773Z,66.93
2022-10-29T00:54:44.761Z,73.93
2022-10-29T00:57:25.350Z,83.25
2022-10-29T00:59:53.111Z,76.60
2022-10-29T01:02:21.986Z,77.93
2022-10-29T01:04:50.618Z,74.62
2022-10-29T01:07:17.984Z,78.65
2022-10-29T01:09:45.695Z,82.30
2022-10-29T01:12:18.997Z,81.32
2022-10-29T01:15:19.024Z,69.37
2022-10-29T01:17:52.432Z,67.50
2022-10-29T01:20:49.917Z,72.87
2022-10-29T01:23:48.146Z,71.50
2022-10-29T01:26:40.433Z,69.65
2022-10-29T01:29:26.404Z,69.82
2022-10-29T01:32:12.671Z,73.87
2022-10-29T01:34:43.800Z,73.12
2022-10-29T01:37:47.838Z,71.45
2022-10-29T01:40:25.091Z,64.22
2022-10-29T01:43:04.468Z,65.97
2022-10-29T01:45:36.567Z,74.68
2022-10-29T01:48:30.539Z,71.30
2022-10-29T01:51:04.985Z,57.47
2022-10-29T01:53:35.188Z,63.72
2022-10-29T01:56:02.531Z,62.80
2022-10-29T01:58:30.467Z,66.47
2022-10-29T02:01:14.799Z,62.53
2022-10-29T02:03:45.114Z,63.80
2022-10-29T02:06:26.758Z,62.38
2022-10-29T02:09:17.227Z,66.28
2022-10-29T02:11:49.473Z,62.60
2022-10-29T02:14:28.097Z,54.10
2022-10-29T02:16:56.107Z,62.65
2022-10-29T02:19:23.750Z,56.83
2022-10-29T02:21:51.346Z,54.83
2022-10-29T02:24:18.689Z,57.28
2022-10-29T02:26:46.296Z,52.15
2022-10-29T02:29:13.665Z,55.10
2022-10-29T02:31:41.009Z,57.30
2022-10-29T02:34:08.777Z,60.75
2022-10-29T02:36:36.135Z,61.45
2022-10-29T02:39:03.820Z,58.83
2022-10-29T02:41:31.438Z,50.47
2022-10-29T02:43:58.866Z,59.53
2022-10-29T02:46:26.253Z,59.85
2022-10-29T02:48:53.882Z,56.88
2022-10-29T02:51:21.242Z,62.55
2022-10-29T02:53:48.566Z,73.87
2022-10-29T02:56:16.166Z,68.47
2022-10-29T02:58:43.499Z,62.80
2022-10-29T03:01:10.972Z,70.15
2022-10-29T03:03:38.671Z,74.80
2022-10-29T03:06:12.643Z,70.35
2022-10-29T03:08:40.366Z,71.78
2022-10-29T03:11:08.061Z,66.60
2022-10-29T03:13:35.415Z,70.55
2022-10-29T03:16:03.334Z,66.68
2022-10-29T03:18:30.692Z,69.55
2022-10-29T03:20:58.108Z,60.40
2022-10-29T03:23:25.725Z,62.85
2022-10-29T03:25:56.023Z,66.35
2022-10-29T03:28:25.093Z,74.57
2022-10-29T03:30:52.759Z,73.22
2022-10-29T03:33:20.106Z,65.75
2022-10-29T03:35:47.482Z,68.03
2022-10-29T03:38:15.073Z,72.97
2022-10-29T03:40:42.900Z,78.78
2022-10-29T03:43:10.269Z,72.87
2022-10-29T03:45:37.857Z,74.45
2022-10-29T03:48:05.528Z,65.87
2022-10-29T03:50:32.913Z,66.43
2022-10-29T03:53:00.491Z,55.05
2022-10-29T03:55:29.215Z,51.37
2022-10-29T03:57:56.928Z,51.65
2022-10-29T04:00:24.850Z,64.32
2022-10-29T04:02:52.554Z,63.75
2022-10-29T04:05:19.953Z,58.30
2022-10-29T04:07:47.318Z,65.53
2022-10-29T04:10:14.932Z,60.05
2022-10-29T04:12:46.551Z,63.30
2022-10-29T04:15:13.980Z,64.07
2022-10-29T04:17:41.608Z,69.18
2022-10-29T04:20:19.113Z,76.18
2022-10-29T04:26:48.083Z,67.87
2022-10-29T04:28:43.623Z,50.22
2022-10-29T04:31:12.377Z,52.88
2022-10-29T04:33:39.769Z,46.67
2022-10-29T04:36:07.890Z,49.95
2022-10-29T04:38:35.278Z,48.83
2022-10-29T04:41:03.013Z,41.22
2022-10-29T04:43:30.875Z,39.78
2022-10-29T04:45:59.369Z,39.70
2022-10-29T04:48:27.891Z,46.42
2022-10-29T04:50:55.540Z,63.70
2022-10-29T04:53:23.042Z,39.85
2022-10-29T04:55:50.838Z,40.92
2022-10-29T04:58:19.737Z,56.70
2022-10-29T05:00:47.219Z,59.08
2022-10-29T05:03:14.675Z,61.35
2022-10-29T05:05:42.614Z,64.07
2022-10-29T05:08:11.089Z,70.30
2022-10-29T05:10:39.672Z,74.03
2022-10-29T05:13:11.838Z,67.10
2022-10-29T05:15:39.903Z,72.00
2022-10-29T05:18:09.043Z,61.90
2022-10-29T05:20:36.478Z,62.47
2022-10-29T05:23:06.083Z,65.55
2022-10-29T05:25:36.609Z,80.87
2022-10-29T05:28:09.735Z,75.82
2022-10-29T05:30:37.800Z,70.75
2022-10-29T05:33:09.296Z,77.93
2022-10-29T05:35:36.906Z,68.65
2022-10-29T05:38:05.072Z,67.28
2022-10-29T05:40:32.966Z,62.28
2022-10-29T05:43:01.060Z,75.28
2022-10-29T05:45:28.712Z,69.12
2022-10-29T05:48:00.417Z,57.05
2022-10-29T05:50:29.003Z,50.08
2022-10-29T05:53:10.475Z,48.22
2022-10-29T05:55:38.300Z,47.53
2022-10-29T05:58:07.948Z,47.92
2022-10-29T06:00:37.436Z,43.67
2022-10-29T06:03:14.997Z,48.58
2022-10-29T06:05:42.639Z,42.65
2022-10-29T06:08:10.590Z,49.35
2022-10-29T06:10:38.052Z,44.65
2022-10-29T06:13:31.681Z,45.35
2022-10-29T06:16:00.045Z,40.58
2022-10-29T06:18:27.728Z,38.25
2022-10-29T06:20:57.351Z,37.95
2022-10-29T06:23:25.311Z,35.92
2022-10-29T06:25:53.132Z,33.45
2022-10-29T06:28:20.563Z,33.13
2022-10-29T06:30:49.967Z,35.50
2022-10-29T06:33:20.769Z,36.63
2022-10-29T06:35:48.836Z,41.55
2022-10-29T06:38:16.225Z,43.15
2022-10-29T06:40:43.746Z,37.90
2022-10-29T06:43:12.383Z,38.22
2022-10-29T06:45:39.968Z,32.72
2022-10-29T06:48:07.521Z,38.92
2022-10-29T06:50:35.166Z,42.05
2022-10-29T06:53:04.750Z,35.45
2022-10-29T06:55:33.835Z,38.15
2022-10-29T06:58:03.293Z,36.22
2022-10-29T07:00:31.631Z,40.97
2022-10-29T07:02:59.624Z,42.97
2022-10-29T07:05:27.887Z,42.70
2022-10-29T07:07:57.143Z,43.85
2022-10-29T07:10:26.275Z,46.53
2022-10-29T07:12:53.926Z,48.72
2022-10-29T07:15:25.651Z,48.67
2022-10-29T07:18:06.108Z,51.40
2022-10-29T07:20:36.312Z,51.60
2022-10-29T07:23:04.417Z,47.67
2022-10-29T07:25:32.501Z,52.42
2022-10-29T07:28:12.766Z,56.33
2022-10-29T07:30:40.735Z,51.42
2022-10-29T07:33:08.712Z,48.55
2022-10-29T07:35:36.763Z,49.72
2022-10-29T07:38:10.398Z,51.70
2022-10-29T07:40:39.841Z,44.53
2022-10-29T07:43:07.629Z,48.40
2022-10-29T07:45:34.999Z,44.40
2022-10-29T07:48:05.071Z,44.22
2022-10-29T07:50:32.763Z,48.92
2022-10-29T07:53:01.144Z,48.55
2022-10-29T07:58:01.464Z,49.50
2022-10-29T08:00:29.927Z,53.22
2022-10-29T08:02:57.931Z,50.40
2022-10-29T08:05:26.340Z,52.42
2022-10-29T08:07:55.522Z,49.25
2022-10-29T08:10:24.450Z,50.30
2022-10-29T08:12:56.991Z,59.95
2022-10-29T08:15:26.036Z,58.83
2022-10-29T08:17:53.858Z,57.33
2022-10-29T08:20:21.927Z,60.60
2022-10-29T08:22:49.587Z,59.47
2022-10-29T08:25:18.047Z,62.13
2022-10-29T08:27:45.507Z,66.15
2022-10-29T08:30:14.552Z,67.20
2022-10-29T08:32:46.653Z,61.65
2022-10-29T08:35:14.625Z,64.03
2022-10-29T08:37:45.451Z,57.92
2022-10-29T08:40:51.629Z,56.80
2022-10-29T08:43:54.404Z,51.97
2022-10-29T08:46:35.879Z,45.58
2022-10-29T08:49:05.220Z,48.13
2022-10-29T08:51:39.445Z,49.22
2022-10-29T08:54:29.960Z,54.65
2022-10-29T08:56:59.626Z,60.70
2022-10-29T08:59:29.832Z,60.83
2022-10-29T09:01:57.340Z,65.47
2022-10-29T09:04:35.306Z,74.05
2022-10-29T09:07:45.675Z,63.53
2022-10-29T09:10:27.822Z,67.93
2022-10-29T09:13:28.316Z,71.78
2022-10-29T09:16:29.579Z,75.20
2022-10-29T09:19:13.380Z,79.03
2022-10-29T09:21:59.882Z,67.62
2022-10-29T09:24:30.737Z,60.85
2022-10-29T09:27:18.972Z,61.05
2022-10-29T09:30:01.869Z,51.00
2022-10-29T09:32:43.332Z,52.70
2022-10-29T09:35:17.156Z,52.45
2022-10-29T09:37:55.073Z,58.17
2022-10-29T09:40:31.768Z,54.13
2022-10-29T09:43:00.694Z,49.45
2022-10-29T09:46:00.622Z,49.15
2022-10-29T09:48:36.974Z,47.20
2022-10-29T09:51:46.234Z,49.13
2022-10-29T09:54:13.685Z,54.13
2022-10-29T09:56:45.673Z,51.08
2022-10-29T09:59:41.125Z,49.45
2022-10-29T10:02:25.853Z,52.03
2022-10-29T10:04:57.050Z,61.17
2022-10-29T10:07:24.469Z,65.55
2022-10-29T10:10:01.794Z,61.17
2022-10-29T10:12:44.939Z,55.50
2022-10-29T10:15:24.075Z,65.82
2022-10-29T10:18:10.302Z,56.37
2022-10-29T10:20:40.552Z,53.63
2022-10-29T10:23:29.319Z,58.90
2022-10-29T10:26:02.043Z,50.90
2022-10-29T10:28:35.724Z,50.17
2022-10-29T10:31:12.068Z,48.75
2022-10-29T10:33:51.530Z,48.05
2022-10-29T10:36:21.780Z,48.45
2022-10-29T10:38:51.342Z,47.05
2022-10-29T10:41:25.271Z,48.63
2022-10-29T10:43:55.783Z,46.03
2022-10-29T10:46:25.461Z,43.87
2022-10-29T10:48:59.770Z,48.63
2022-10-29T10:51:32.209Z,49.72
2022-10-29T10:54:01.580Z,49.28
2022-10-29T10:56:29.686Z,47.90
2022-10-29T10:59:10.093Z,44.95
2022-10-29T11:01:41.831Z,50.12
2022-10-29T11:04:17.789Z,53.90
2022-10-29T11:06:48.770Z,46.45
2022-10-29T11:09:25.342Z,49.42
2022-10-29T11:12:06.713Z,54.67
2022-10-29T11:14:36.810Z,50.22
2022-10-29T11:17:07.368Z,61.35
2022-10-29T11:19:45.638Z,58.90
2022-10-29T11:22:19.037Z,63.00
2022-10-29T11:25:21.628Z,58.53
2022-10-29T11:27:55.508Z,48.83
2022-10-29T11:30:23.253Z,42.92
2022-10-29T11:32:59.074Z,47.88
2022-10-29T11:35:43.943Z,52.85
2022-10-29T11:38:22.703Z,49.67
2022-10-29T11:41:27.792Z,47.72
2022-10-29T11:43:55.417Z,47.60
2022-10-29T11:46:59.565Z,53.58
2022-10-29T11:49:43.619Z,54.90
2022-10-29T11:52:13.950Z,55.67
2022-10-29T11:55:06.767Z,48.72
2022-10-29T11:57:59.010Z,51.60
2022-10-29T12:00:31.941Z,48.05
2022-10-29T12:03:11.597Z,50.88
2022-10-29T12:05:50.686Z,53.22
2022-10-29T12:08:31.476Z,52.22
2022-10-29T12:10:58.744Z,46.17
2022-10-29T12:14:07.626Z,47.13
2022-10-29T12:16:47.208Z,46.58
2022-10-29T12:19:14.704Z,47.75
2022-10-29T12:21:41.977Z,47.72
2022-10-29T12:24:23.843Z,46.92
2022-10-29T12:27:18.959Z,40.47
2022-10-29T12:29:58.965Z,36.38
2022-10-29T12:32:33.929Z,42.62
2022-10-29T12:35:02.930Z,38.05
2022-10-29T12:37:49.697Z,42.25
2022-10-29T12:40:21.286Z,36.70
2022-10-29T12:42:49.874Z,39.20
2022-10-29T12:45:43.454Z,41.45
2022-10-29T12:48:34.742Z,37.35
2022-10-29T12:51:27.038Z,43.25
2022-10-29T12:54:11.164Z,40.33
2022-10-29T12:56:38.801Z,40.65
2022-10-29T12:59:36.575Z,42.17
2022-10-29T13:02:24.526Z,48.35
2022-10-29T13:05:27.646Z,48.83
2022-10-29T13:08:03.767Z,47.38
2022-10-29T13:10:34.091Z,49.35
2022-10-29T13:13:07.149Z,46.97
2022-10-29T13:15:42.170Z,41.63
2022-10-29T13:20:42.689Z,47.80
2022-10-29T13:23:22.275Z,42.70
2022-10-29T13:26:08.634Z,42.10
2022-10-29T13:28:35.867Z,39.40
2022-10-29T13:31:06.447Z,39.05
2022-10-29T13:33:33.663Z,38.83
2022-10-29T13:36:05.415Z,35.78
2022-10-29T13:39:04.451Z,36.35
2022-10-29T13:42:03.362Z,40.90
2022-10-29T13:44:31.831Z,37.72
2022-10-29T13:47:24.445Z,42.03
2022-10-29T13:49:52.152Z,37.72
2022-10-29T13:52:21.278Z,41.00
2022-10-29T13:55:01.330Z,43.83
2022-10-29T13:57:38.788Z,43.63
2022-10-29T14:00:12.100Z,43.08
2022-10-29T14:02:42.749Z,37.60
2022-10-29T14:05:17.677Z,35.35
2022-10-29T14:08:00.705Z,33.88
2022-10-29T14:10:34.176Z,37.22
2022-10-29T14:13:13.952Z,36.08
2022-10-29T14:16:03.119Z,41.03
2022-10-29T14:18:37.456Z,38.38
2022-10-29T14:21:07.499Z,38.13
2022-10-29T14:23:35.174Z,36.65
2022-10-29T14:26:03.988Z,37.75
2022-10-29T14:28:32.836Z,37.85
2022-10-29T14:31:06.322Z,42.28
2022-10-29T14:33:37.595Z,39.17
2022-10-29T14:36:05.256Z,36.95
2022-10-29T14:38:38.047Z,37.08
2022-10-29T14:41:06.003Z,35.60
2022-10-29T14:43:35.054Z,37.30
2022-10-29T14:46:25.659Z,41.03
2022-10-29T14:48:58.302Z,36.83
2022-10-29T14:51:26.281Z,36.03
2022-10-29T14:54:00.513Z,32.75
2022-10-29T14:56:37.172Z,33.65
2022-10-29T14:59:18.973Z,32.17
2022-10-29T15:01:53.996Z,32.47
2022-10-29T15:04:30.763Z,30.58
2022-10-29T15:07:35.439Z,34.88
2022-10-29T15:10:16.858Z,34.93
2022-10-29T15:12:44.678Z,38.65
2022-10-29T15:15:19.010Z,38.40
2022-10-29T15:17:56.078Z,34.10
2022-10-29T15:20:39.091Z,35.85
2022-10-29T15:23:15.785Z,38.20
2022-10-29T15:25:44.880Z,41.10
2022-10-29T15:28:18.146Z,37.67
2022-10-29T15:30:46.753Z,40.53
2022-10-29T15:33:18.525Z,37.65
2022-10-29T15:35:51.859Z,45.50
2022-10-29T15:38:52.216Z,43.92
2022-10-29T15:41:20.473Z,41.08
2022-10-29T15:43:55.946Z,41.72
2022-10-29T15:46:25.709Z,43.78
2022-10-29T15:48:54.226Z,46.40
2022-10-29T15:51:26.315Z,54.83
2022-10-29T15:53:58.734Z,49.10
2022-10-29T15:56:26.449Z,49.17
2022-10-29T15:58:57.007Z,45.88
2022-10-29T16:01:26.927Z,46.08
2022-10-29T16:03:54.844Z,43.28
2022-10-29T16:06:22.597Z,40.45
2022-10-29T16:08:51.947Z,46.28
2022-10-29T16:11:20.888Z,43.55
2022-10-29T16:13:54.526Z,42.13
2022-10-29T16:16:25.150Z,41.30
2022-10-29T16:18:53.637Z,44.53
2022-10-29T16:21:23.253Z,40.47
2022-10-29T16:23:52.100Z,48.30
2022-10-29T16:26:24.517Z,40.88
2022-10-29T16:28:53.546Z,48.38
2022-10-29T16:31:32.134Z,45.85
2022-10-29T16:34:03.661Z,54.08
2022-10-29T16:36:31.018Z,51.47
2022-10-29T16:38:58.831Z,57.05
2022-10-29T16:41:26.861Z,50.92
2022-10-29T16:43:54.729Z,47.45
2022-10-29T16:46:22.640Z,51.45
2022-10-29T16:48:50.950Z,48.53
2022-10-29T16:51:19.092Z,44.78
2022-10-29T16:53:47.043Z,46.88
2022-10-29T16:56:14.740Z,51.63
2022-10-29T16:58:42.418Z,47.22
2022-10-29T17:01:10.949Z,50.97
2022-10-29T17:03:39.806Z,53.03
2022-10-29T17:06:09.749Z,55.60
2022-10-29T17:08:38.228Z,50.63
2022-10-29T17:11:10.068Z,51.65
2022-10-29T17:13:38.493Z,54.65
2022-10-29T17:16:07.991Z,55.00
2022-10-29T17:18:35.694Z,61.72
2022-10-29T17:21:04.025Z,60.85
2022-10-29T17:23:32.721Z,64.40
2022-10-29T17:26:01.000Z,68.93
2022-10-29T17:28:29.129Z,61.80
2022-10-29T17:30:57.531Z,65.20
2022-10-29T17:33:26.295Z,58.60
2022-10-29T17:36:04.968Z,62.83
2022-10-29T17:38:33.477Z,60.53
2022-10-29T17:41:01.218Z,70.87
2022-10-29T17:43:28.907Z,66.97
2022-10-29T17:45:56.827Z,76.80
2022-10-29T17:48:25.169Z,70.15
2022-10-29T17:51:01.444Z,76.43
2022-10-29T17:53:31.472Z,74.62
2022-10-29T17:55:59.767Z,67.30
2022-10-29T17:58:27.809Z,75.95
2022-10-29T18:00:56.160Z,63.03
2022-10-29T18:03:27.069Z,59.53
2022-10-29T18:06:01.054Z,60.22
2022-10-29T18:08:29.661Z,54.55
2022-10-29T18:11:11.300Z,58.03
2022-10-29T18:13:41.756Z,62.40
2022-10-29T18:16:13.086Z,65.70
2022-10-29T18:18:54.755Z,70.43
2022-10-29T18:21:33.144Z,66.00
2022-10-29T18:24:01.669Z,62.47
2022-10-29T18:26:32.963Z,66.85
2022-10-29T18:29:03.817Z,76.72
2022-10-29T18:31:32.225Z,103.43
2022-10-29T18:34:02.332Z,71.03
2022-10-29T18:36:30.511Z,65.75
2022-10-29T18:38:59.133Z,61.72
2022-10-29T18:41:27.006Z,63.00
2022-10-29T18:43:55.990Z,61.70
2022-10-29T18:46:23.367Z,75.07
2022-10-29T18:48:51.812Z,66.80
2022-10-29T18:51:28.803Z,67.12
2022-10-29T18:54:00.107Z,61.42
2022-10-29T18:56:29.433Z,70.00
2022-10-29T18:58:58.254Z,61.65
2022-10-29T19:01:30.697Z,77.53
2022-10-29T19:04:01.301Z,80.00
2022-10-29T19:06:31.605Z,73.68
2022-10-29T19:09:06.484Z,65.68
2022-10-29T19:14:05.761Z,60.75
2022-10-29T19:16:33.974Z,56.53
2022-10-29T19:21:38.369Z,59.30
2022-10-29T19:24:07.523Z,74.60
2022-10-29T19:26:35.467Z,69.53
2022-10-29T19:29:04.184Z,61.90
2022-10-29T19:31:33.237Z,58.85
2022-10-29T19:34:02.536Z,65.43
2022-10-29T19:36:30.746Z,63.50
2022-10-29T19:39:00.782Z,62.78
2022-10-29T19:41:29.706Z,58.10
2022-10-29T19:44:01.594Z,65.55
2022-10-29T19:46:30.605Z,66.00
2022-10-29T19:48:58.583Z,64.20
2022-10-29T19:51:26.806Z,61.65
2022-10-29T19:53:57.647Z,65.12
2022-10-29T19:56:25.705Z,60.83
2022-10-29T19:58:53.323Z,72.03
2022-10-29T20:01:21.987Z,77.57
2022-10-29T20:03:50.002Z,77.25
2022-10-29T20:06:18.420Z,71.43
2022-10-29T20:08:46.304Z,110.28
2022-10-29T20:11:14.040Z,146.77
2022-10-29T20:13:42.170Z,160.60
2022-10-29T20:16:12.765Z,132.65
2022-10-29T20:18:41.055Z,82.88
2022-10-29T20:21:08.869Z,87.80
2022-10-29T20:23:36.475Z,83.00
2022-10-29T20:26:04.413Z,111.43
2022-10-29T20:28:32.835Z,84.37
2022-10-29T20:31:19.370Z,90.50
2022-10-29T20:33:57.108Z,85.30
2022-10-29T20:36:28.844Z,83.75
2022-10-29T20:38:56.942Z,83.95
2022-10-29T20:41:25.232Z,80.60
2022-10-29T20:43:59.211Z,76.22
2022-10-29T20:46:27.564Z,74.80
2022-10-29T20:48:55.317Z,79.97
2022-10-29T20:51:24.458Z,73.65
2022-10-29T20:53:53.050Z,74.82
2022-10-29T20:56:23.357Z,79.85
2022-10-29T20:58:50.752Z,70.90
2022-10-29T21:01:20.393Z,75.28
2022-10-29T21:03:50.277Z,70.75
2022-10-29T21:06:19.211Z,76.72
2022-10-29T21:08:47.762Z,82.28
2022-10-29T21:11:16.955Z,98.82
2022-10-29T21:13:45.368Z,103.32
2022-10-29T21:16:22.344Z,92.22
2022-10-29T21:18:53.060Z,98.05
2022-10-29T21:21:21.371Z,78.28
2022-10-29T21:23:48.975Z,85.57
2022-10-29T21:26:22.299Z,84.68
2022-10-29T21:28:51.203Z,86.97
2022-10-29T21:31:20.668Z,95.07
2022-10-29T21:33:51.960Z,90.28
2022-10-29T21:36:20.698Z,98.47
2022-10-29T21:38:48.775Z,89.05
2022-10-29T21:41:16.726Z,89.10
2022-10-29T21:43:44.614Z,92.90
2022-10-29T21:46:12.229Z,98.12
2022-10-29T21:48:39.884Z,94.43
2022-10-29T21:51:10.947Z,87.82
2022-10-29T21:53:39.272Z,94.22
2022-10-29T21:56:09.747Z,94.45
2022-10-29T21:58:37.592Z,84.32
2022-10-29T22:01:06.404Z,94.87
2022-10-29T22:03:35.817Z,96.63
2022-10-29T22:06:09.470Z,88.60
2022-10-29T22:08:38.303Z,92.50
2022-10-29T22:11:06.147Z,98.43
2022-10-29T22:13:34.415Z,87.85
2022-10-29T22:16:04.081Z,88.57
2022-10-29T22:18:32.026Z,94.07
2022-10-29T22:21:11.771Z,100.38
2022-10-29T22:23:58.694Z,95.85
2022-10-29T22:26:28.039Z,97.78
2022-10-29T22:28:56.015Z,104.80
2022-10-29T22:31:24.470Z,108.28
2022-10-29T22:33:52.688Z,104.95
2022-10-29T22:36:23.018Z,109.10
2022-10-29T22:38:54.792Z,96.15
2022-10-29T22:41:23.043Z,91.07
2022-10-29T22:43:50.458Z,99.00
2022-10-29T22:46:20.135Z,100.87
2022-10-29T22:48:48.168Z,107.18
2022-10-29T22:51:18.325Z,100.00
2022-10-29T22:53:45.953Z,100.57
2022-10-29T22:56:22.137Z,96.90
2022-10-29T22:58:49.658Z,93.22
2022-10-29T23:01:25.804Z,105.07
2022-10-29T23:03:53.999Z,90.38
2022-10-29T23:06:23.661Z,94.20
2022-10-29T23:08:53.083Z,92.00
2022-10-29T23:11:25.939Z,90.07
2022-10-29T23:13:55.948Z,92.93
2022-10-29T23:16:24.430Z,88.07
2022-10-29T23:18:55.030Z,88.35
2022-10-29T23:21:23.018Z,79.30
2022-10-29T23:23:50.617Z,84.45
2022-10-29T23:26:19.203Z,79.45
2022-10-29T23:28:47.836Z,90.97
2022-10-29T23:31:17.599Z,92.57
2022-10-29T23:33:50.469Z,84.93
2022-10-29T23:36:19.636Z,86.37
2022-10-29T23:38:47.063Z,96.90
2022-10-29T23:41:14.725Z,86.87
2022-10-29T23:43:42.454Z,85.97
2022-10-29T23:46:10.224Z,94.82
2022-10-29T23:48:37.604Z,91.53
2022-10-29T23:51:05.525Z,93.18
2022-10-29T23:53:33.338Z,94.68
2022-10-29T23:56:01.002Z,87.30
2022-10-29T23:58:29.010Z,92.80
